Time;durP1;ratioP1;P1;durP2;ratioP2;P2;SDS_P1;SDS_P2;PMS_P1;PMS_P2;Temp;Humidity;BMP_temperature;BMP_pressure;BME280_temperature;BME280_humidity;BME280_pressure;Samples;Min_cycle;Max_cycle;Signal;HPM_P1;HPM_P2
2024/04/05 00:00:13;;;;;;;2.53;1.20;;;11.60;99.90;;;-141.84;84.71;73079.69;5093651;28;20226;-61
2024/04/05 00:02:45;;;;;;;1.80;1.23;;;11.60;99.90;;;-141.84;85.75;76508.97;5095872;28;20571;-62
2024/04/05 00:05:16;;;;;;;3.23;1.63;;;11.60;99.90;;;-141.84;84.25;70443.78;5092405;28;20606;-68
2024/04/05 00:07:45;;;;;;;2.15;1.23;;;11.60;99.90;;;-141.84;83.18;67019.72;5093927;28;20231;-67
2024/04/05 00:10:17;;;;;;;1.87;1.40;;;11.60;99.90;;;-141.84;82.00;56239.94;5091596;28;20255;-68
2024/04/05 00:12:47;;;;;;;3.00;2.00;;;11.60;99.90;;;-141.84;83.77;67019.72;5091627;28;20244;-64
2024/04/05 00:15:18;;;;;;;2.07;1.50;;;11.50;99.90;;;-141.84;84.52;70707.31;5095283;28;20271;-64
2024/04/05 00:17:46;;;;;;;2.40;1.30;;;11.40;99.90;;;-141.84;84.48;70180.31;5089901;28;20211;-69
2024/04/05 00:20:14;;;;;;;2.23;1.50;;;11.40;99.90;;;-141.84;83.73;67019.72;5090720;28;20321;-69
2024/04/05 00:22:41;;;;;;;1.67;1.37;;;11.30;99.90;;;-141.84;85.51;73607.09;5089816;28;20269;-68
2024/04/05 00:25:09;;;;;;;2.90;1.63;;;11.20;99.90;;;-141.84;86.80;80469.50;5090838;28;20227;-69
2024/04/05 00:27:36;;;;;;;2.53;1.60;;;11.20;99.90;;;-141.84;87.28;81790.53;5094303;28;20203;-68
2024/04/05 00:30:08;;;;;;;3.00;1.70;;;11.20;99.90;;;-141.84;87.69;82847.66;5090770;28;20216;-68
2024/04/05 00:32:36;;;;;;;3.63;1.77;;;11.10;99.90;;;-141.84;87.79;83112.00;5092674;28;20214;-68
2024/04/05 00:35:04;;;;;;;2.70;1.70;;;11.00;99.90;;;-141.84;88.91;86814.44;5090588;28;20273;-69
2024/04/05 00:37:34;;;;;;;3.80;1.77;;;11.00;99.90;;;-141.84;88.91;87872.91;5093496;28;20584;-69
2024/04/05 00:40:02;;;;;;;2.80;1.40;;;10.90;99.90;;;-141.84;86.16;78356.72;5042136;28;20227;-68
2024/04/05 00:42:30;;;;;;;2.63;1.47;;;10.90;99.90;;;-141.84;86.29;76508.97;5093031;28;20255;-67
2024/04/05 00:45:02;;;;;;;3.00;1.53;;;10.90;99.90;;;-141.84;86.75;78884.81;5086514;28;20188;-69
2024/04/05 00:47:29;;;;;;;3.43;1.67;;;10.90;99.90;;;-141.84;89.24;87343.63;5081853;28;20691;-69
2024/04/05 00:49:59;;;;;;;4.33;1.83;;;10.80;99.90;;;-141.84;89.36;88931.63;5092312;28;20759;-69
2024/04/05 00:52:27;;;;;;;3.73;1.77;;;10.70;99.90;;;-141.84;89.89;89461.13;5085967;28;20228;-69
2024/04/05 00:54:57;;;;;;;2.70;1.73;;;10.70;99.90;;;-141.84;87.99;84169.50;5090383;28;20242;-61
2024/04/05 00:57:24;;;;;;;3.83;1.43;;;10.70;99.90;;;-141.84;87.65;81790.53;5089721;28;20208;-60
2024/04/05 00:59:57;;;;;;;1.93;1.37;;;10.70;99.90;;;-141.84;84.99;70443.78;5088399;28;20195;-61
2024/04/05 01:02:23;;;;;;;3.67;1.77;;;10.80;99.90;;;-141.84;86.85;78884.81;5037675;28;20727;-61
2024/04/05 01:04:52;;;;;;;3.43;1.70;;;10.70;99.90;;;-141.84;84.75;72025.13;5089453;28;20219;-61
2024/04/05 01:07:22;;;;;;;4.00;1.80;;;10.70;99.90;;;-141.84;85.76;73607.09;5089180;28;20255;-61
2024/04/05 01:09:50;;;;;;;4.83;1.60;;;10.70;99.90;;;-141.84;86.44;76772.88;5091519;28;20235;-60
2024/04/05 01:12:19;;;;;;;2.67;1.50;;;10.70;99.90;;;-141.84;88.87;86020.75;5062896;28;1121403;-64
2024/04/05 01:14:46;;;;;;;3.13;1.87;;;10.60;99.90;;;-141.84;89.57;88931.63;5088766;28;20216;-62
2024/04/05 01:17:15;;;;;;;2.73;1.40;;;10.50;99.90;;;-141.84;86.17;76245.09;5092254;28;20821;-60
2024/04/05 01:19:43;;;;;;;4.57;1.80;;;10.60;99.90;;;-141.84;83.63;65703.56;5090812;28;20597;-68
2024/04/05 01:22:15;;;;;;;5.40;1.80;;;10.70;99.90;;;-141.84;82.30;53877.56;5087919;28;20220;-69
2024/04/05 01:24:44;;;;;;;4.50;1.30;;;10.70;99.90;;;-141.84;82.50;56765.13;5095270;28;20191;-68
2024/04/05 01:27:10;;;;;;;4.60;1.57;;;10.70;99.90;;;-141.84;84.30;66756.44;5095077;28;20236;-69
2024/04/05 01:29:41;;;;;;;5.20;1.53;;;10.70;99.90;;;-141.84;84.84;69126.50;5095171;28;20219;-68
2024/04/05 01:32:08;;;;;;;3.63;1.40;;;10.60;99.90;;;-141.84;85.13;71497.94;5091162;28;20274;-68
2024/04/05 01:34:36;;;;;;;5.10;1.30;;;10.60;99.90;;;-141.84;84.83;69389.94;5091491;28;20246;-69
2024/04/05 01:37:03;;;;;;;2.33;1.50;;;10.60;99.90;;;-141.84;84.79;70180.31;5093006;28;20277;-68
2024/04/05 01:39:32;;;;;;;3.40;1.20;;;10.60;99.90;;;-141.84;82.21;55452.34;5095269;28;20195;-68
2024/04/05 01:42:01;;;;;;;3.73;1.70;;;10.60;99.90;;;-141.84;84.85;68072.97;5095656;28;20203;-69
2024/04/05 01:44:29;;;;;;;3.00;1.50;;;10.50;99.90;;;-141.84;85.48;73343.38;5092244;28;20223;-69
2024/04/05 01:46:56;;;;;;;3.80;1.73;;;10.50;99.90;;;-141.84;85.68;74134.56;5091534;28;20734;-70
2024/04/05 01:49:24;;;;;;;3.40;1.50;;;10.50;99.90;;;-141.84;83.82;63598.59;5091251;28;20219;-69
2024/04/05 01:51:50;;;;;;;3.60;1.57;;;10.50;99.90;;;-141.84;83.81;63598.59;5091445;28;20215;-69
2024/04/05 01:54:17;;;;;;;3.07;1.50;;;10.40;99.90;;;-141.84;83.01;61231.81;5092256;28;20637;-69
2024/04/05 01:56:44;;;;;;;6.60;2.03;;;10.40;99.90;;;-141.84;81.50;51778.88;5091466;28;20222;-68
2024/04/05 01:59:12;;;;;;;5.87;1.93;;;10.40;99.90;;;-141.84;80.98;46798.88;5090973;28;20694;-68
2024/04/05 02:01:38;;;;;;;3.33;1.70;;;10.40;99.90;;;-141.84;83.37;61231.81;5081982;28;20761;-69
2024/04/05 02:04:06;;;;;;;3.70;1.80;;;10.30;99.90;;;-141.84;84.22;65440.38;5087919;28;20254;-68
2024/04/05 02:06:32;;;;;;;7.03;2.13;;;10.40;99.90;;;-141.84;85.25;71234.38;5090871;28;20706;-68
2024/04/05 02:08:59;;;;;;;5.73;1.87;;;10.30;99.90;;;-141.84;85.64;74398.31;5088802;28;20305;-69
2024/04/05 02:11:26;;;;;;;2.67;1.73;;;10.20;99.90;;;-141.84;83.71;63598.59;5092162;28;20602;-69
2024/04/05 02:13:53;;;;;;;3.60;1.93;;;10.20;99.90;;;-141.84;85.36;70970.84;5094416;28;20223;-69
2024/04/05 02:16:21;;;;;;;3.43;2.00;;;10.20;99.90;;;-141.84;87.15;78884.81;5091305;28;20216;-69
2024/04/05 02:18:48;;;;;;;6.77;1.90;;;10.10;99.90;;;-141.84;88.49;83640.72;5091311;28;20646;-69
2024/04/05 02:21:14;;;;;;;5.70;2.10;;;10.10;99.90;;;-141.84;89.32;86814.44;5085395;28;20261;-69
2024/04/05 02:23:41;;;;;;;5.07;2.10;;;10.10;99.90;;;-141.84;89.85;89461.13;5087933;28;20211;-68
2024/04/05 02:26:08;;;;;;;4.80;1.70;;;10.00;99.90;;;-141.84;90.23;90520.28;5091611;28;20637;-69
2024/04/05 02:28:35;;;;;;;3.47;2.13;;;10.00;99.90;;;-141.84;89.27;88666.94;5092791;28;20640;-68
2024/04/05 02:31:01;;;;;;;3.83;1.60;;;10.00;99.90;;;-141.84;89.09;86020.75;5094527;28;20237;-68
2024/04/05 02:33:30;;;;;;;5.63;1.87;;;10.00;99.90;;;-141.84;89.82;89461.13;5094518;28;20207;-68
2024/04/05 02:36:00;;;;;;;5.57;2.00;;;10.00;99.90;;;-141.84;91.23;92904.41;5094923;28;20199;-69
2024/04/05 02:38:27;;;;;;;3.37;1.63;;;9.90;99.90;;;-141.84;91.37;92904.41;5091283;28;20216;-69
2024/04/05 02:40:55;;;;;;;5.57;2.10;;;9.90;99.90;;;-141.84;91.44;92904.41;5090221;28;20220;-70
2024/04/05 02:43:22;;;;;;;3.27;2.10;;;9.80;99.90;;;-141.84;90.80;91579.72;5092878;28;20224;-70
2024/04/05 02:45:49;;;;;;;4.40;1.80;;;9.80;99.90;;;-141.84;92.66;96085.44;5094172;28;20714;-69
2024/04/05 02:48:16;;;;;;;4.47;1.97;;;9.80;99.90;;;-141.84;89.59;87872.91;5094579;28;20218;-68
2024/04/05 02:50:44;;;;;;;2.07;1.70;;;9.80;99.90;;;-141.84;92.44;95555.09;5093725;28;20383;-70
2024/04/05 02:53:11;;;;;;;4.93;2.73;;;9.80;99.90;;;-141.84;94.26;100596.16;5091954;28;20218;-69
2024/04/05 02:55:38;;;;;;;3.53;2.10;;;9.70;99.90;;;-141.84;94.40;101127.16;5094298;28;20216;-70
2024/04/05 02:58:05;;;;;;;5.30;1.90;;;9.70;99.90;;;-141.84;92.90;96881.06;5093482;28;21050;-69
2024/04/05 03:00:32;;;;;;;2.47;1.63;;;9.70;99.90;;;-141.84;93.08;97676.88;5084738;28;20549;-68
2024/04/05 03:02:59;;;;;;;4.83;1.70;;;9.70;99.90;;;-141.84;91.34;93169.38;5091078;28;20616;-68
2024/04/05 03:05:26;;;;;;;4.73;1.80;;;9.70;99.90;;;-141.84;89.39;87872.91;5093396;28;20730;-69
2024/04/05 03:07:54;;;;;;;4.20;1.60;;;9.80;99.90;;;-141.84;90.03;88666.94;5094097;28;20607;-69
2024/04/05 03:10:21;;;;;;;2.83;1.90;;;9.80;99.90;;;-141.84;89.47;87872.91;5093855;28;20230;-70
2024/04/05 03:12:51;;;;;;;3.33;1.73;;;9.80;99.90;;;-141.84;91.96;93964.47;5093427;28;20239;-69
2024/04/05 03:15:18;;;;;;;4.00;1.80;;;9.80;99.90;;;-141.84;94.89;101127.16;5090909;28;20203;-69
2024/04/05 03:17:46;;;;;;;4.43;1.80;;;9.70;99.90;;;-141.84;94.51;101127.16;5090570;28;20216;-69
2024/04/05 03:20:12;;;;;;;3.90;1.87;;;9.70;99.90;;;-141.84;92.40;96350.63;5092824;28;20227;-68
2024/04/05 03:22:40;;;;;;;4.13;1.67;;;9.70;99.90;;;-141.84;92.33;96350.63;5089945;28;20261;-68
2024/04/05 03:25:08;;;;;;;4.03;2.00;;;9.70;99.90;;;-141.84;92.26;95820.25;5088864;28;20228;-69
2024/04/05 03:27:36;;;;;;;3.20;1.90;;;9.70;99.90;;;-141.84;91.17;93169.38;5093228;28;20269;-69
2024/04/05 03:30:03;;;;;;;4.87;1.93;;;9.70;99.90;;;-141.84;92.55;95820.25;5093759;28;20223;-69
2024/04/05 03:32:31;;;;;;;6.10;1.77;;;9.70;99.90;;;-141.84;88.51;85756.25;5093278;28;20245;-69
2024/04/05 03:34:57;;;;;;;3.43;1.73;;;9.80;99.90;;;-141.84;88.31;83376.34;5092652;28;20226;-69
2024/04/05 03:37:25;;;;;;;3.73;1.73;;;9.80;99.90;;;-141.84;87.93;82583.34;5091514;28;20218;-70
2024/04/05 03:39:57;;;;;;;2.83;1.80;;;9.90;99.90;;;-141.84;88.18;81790.53;5095217;28;20227;-70
2024/04/05 03:42:26;;;;;;;4.63;1.90;;;9.80;99.90;;;-141.84;90.07;89196.38;5087211;28;20393;-68
2024/04/05 03:44:56;;;;;;;6.23;2.37;;;9.80;99.90;;;-141.84;89.80;89196.38;5093957;28;20204;-69
2024/04/05 03:47:23;;;;;;;3.37;2.10;;;9.80;99.90;;;-141.84;87.23;78356.72;5094085;28;20224;-68
2024/04/05 03:49:50;;;;;;;3.23;1.83;;;9.90;99.90;;;-141.84;89.34;85756.25;5090193;28;20240;-61
2024/04/05 03:52:18;;;;;;;5.77;2.10;;;9.90;99.90;;;-141.84;90.56;91049.97;5091316;28;20228;-60
2024/04/05 03:54:44;;;;;;;6.93;2.43;;;9.90;99.90;;;-141.84;90.66;91579.72;5094679;28;20264;-61
2024/04/05 03:57:12;;;;;;;6.73;2.13;;;9.90;99.90;;;-141.84;89.89;90785.09;5096561;28;20195;-60
2024/04/05 03:59:39;;;;;;;6.17;1.90;;;10.00;99.90;;;-141.84;88.17;82847.66;5096261;28;20241;-60
2024/04/05 04:02:06;;;;;;;5.40;1.90;;;10.00;99.90;;;-141.84;89.38;86814.44;5087848;28;20638;-61
2024/04/05 04:04:36;;;;;;;3.07;2.00;;;10.10;99.90;;;-141.84;87.97;82847.66;5091227;28;20216;-60
2024/04/05 04:07:03;;;;;;;2.50;2.00;;;10.10;99.90;;;-141.84;87.40;79941.19;5087900;28;20223;-60
2024/04/05 04:09:30;;;;;;;4.43;2.17;;;10.10;99.90;;;-141.84;83.96;65440.38;5095056;28;20284;-60
2024/04/05 04:11:57;;;;;;;3.40;1.80;;;10.20;99.90;;;-141.84;82.86;60180.38;5094030;28;20196;-61
2024/04/05 04:14:23;;;;;;;5.57;2.10;;;10.30;99.90;;;-141.84;81.15;47322.81;5091892;28;20602;-60
2024/04/05 04:16:52;;;;;;;3.73;1.80;;;10.40;99.90;;;-141.84;81.71;50729.94;5094112;28;20219;-61
2024/04/05 04:19:18;;;;;;;3.03;1.83;;;10.40;99.90;;;-141.84;84.67;68336.31;5089439;28;20215;-61
2024/04/05 04:21:46;;;;;;;3.87;1.80;;;10.40;99.90;;;-141.84;81.72;52041.16;5083525;28;20596;-60
2024/04/05 04:24:14;;;;;;;6.37;2.20;;;10.50;99.90;;;-141.84;82.58;55714.84;5108061;28;20206;-61
2024/04/05 04:26:41;;;;;;;4.70;1.90;;;10.50;99.90;;;-141.84;82.97;59391.97;5088816;28;20215;-61
2024/04/05 04:29:07;;;;;;;4.63;1.93;;;10.50;99.90;;;-141.84;81.86;56239.94;5088490;28;20368;-60
2024/04/05 04:31:35;;;;;;;5.33;2.00;;;10.50;99.90;;;-141.84;80.90;45751.28;5089470;28;20220;-60
2024/04/05 04:34:03;;;;;;;5.67;2.07;;;10.50;99.90;;;-141.84;82.19;53877.56;5091901;28;20363;-60
2024/04/05 04:36:30;;;;;;;7.03;2.10;;;10.50;99.90;;;-141.84;83.39;62283.53;5092070;28;20194;-61
2024/04/05 04:38:57;;;;;;;4.33;2.60;;;10.50;99.90;;;-141.84;85.11;70970.84;5090562;28;20200;-61
2024/04/05 04:41:24;;;;;;;3.43;1.97;;;10.40;99.90;;;-141.84;83.97;65703.56;5090659;28;20218;-60
2024/04/05 04:43:52;;;;;;;5.80;2.20;;;10.40;99.90;;;-141.84;83.93;66493.19;5088573;28;20212;-60
2024/04/05 04:46:20;;;;;;;2.83;2.03;;;10.40;99.90;;;-141.84;84.83;70707.31;5089673;28;20273;-60
2024/04/05 04:48:46;;;;;;;5.63;2.23;;;10.40;99.90;;;-141.84;84.78;71761.53;5085466;28;20215;-60
2024/04/05 04:51:14;;;;;;;4.10;2.10;;;10.40;99.90;;;-141.84;83.22;61494.72;5088767;28;20215;-60
2024/04/05 04:53:41;;;;;;;5.77;2.17;;;10.50;99.90;;;-141.84;82.44;57027.72;5091444;28;20272;-60
2024/04/05 04:56:10;;;;;;;5.37;2.27;;;10.50;99.90;;;-141.84;85.12;70707.31;5088415;28;20723;-61
2024/04/05 04:58:37;;;;;;;3.97;2.27;;;10.50;99.90;;;-141.84;87.33;80469.50;5091594;28;20211;-61
2024/04/05 05:01:04;;;;;;;2.77;1.77;;;10.40;99.90;;;-141.84;87.70;82583.34;5089770;28;20262;-60
2024/04/05 05:03:31;;;;;;;4.33;2.40;;;10.40;99.90;;;-141.84;83.13;63598.59;5091524;28;20207;-60
2024/04/05 05:05:58;;;;;;;3.40;1.90;;;10.50;99.90;;;-141.84;84.91;69126.50;5080999;28;20332;-61
2024/04/05 05:08:28;;;;;;;4.53;2.07;;;10.50;99.90;;;-141.84;82.12;57027.72;5089702;28;20887;-62
2024/04/05 05:10:55;;;;;;;4.30;2.50;;;10.70;99.90;;;-141.84;79.96;41005.69;5091620;28;20695;-61
2024/04/05 05:13:21;;;;;;;4.50;2.13;;;10.80;99.90;;;-141.84;80.62;43656.88;5091357;28;20714;-61
2024/04/05 05:15:48;;;;;;;4.87;3.13;;;10.90;99.90;;;-141.84;81.85;55977.41;5091354;28;20219;-61
2024/04/05 05:18:15;;;;;;;6.07;2.40;;;10.90;99.90;;;-141.84;81.29;50467.75;5089026;28;20192;-61
2024/04/05 05:20:47;;;;;;;6.93;2.60;;;10.90;99.90;;;-141.84;79.68;41563.59;5081819;28;20199;-61
2024/04/05 05:23:14;;;;;;;4.87;2.60;;;11.10;99.90;;;-141.84;80.90;48370.84;5088580;28;20207;-61
2024/04/05 05:25:44;;;;;;;5.43;2.70;;;11.10;99.90;;;-141.84;80.67;47584.78;5088837;28;20331;-61
2024/04/05 05:28:12;;;;;;;3.90;2.40;;;11.20;99.90;;;-141.84;78.61;32644.88;5085979;28;20200;-60
2024/04/05 05:30:40;;;;;;;4.40;2.30;;;11.30;99.90;;;-141.84;77.09;24421.88;5086248;28;20219;-63
2024/04/05 05:33:08;;;;;;;3.67;2.10;;;11.50;99.90;;;-141.84;76.53;23250.03;5083260;28;20204;-61
2024/04/05 05:35:40;;;;;;;3.97;1.83;;;11.60;99.90;;;-141.84;76.63;23243.94;5087919;28;20208;-61
2024/04/05 05:38:07;;;;;;;2.87;1.93;;;11.70;99.90;;;-141.84;76.72;24126.84;5037926;28;20199;-61
2024/04/05 05:40:34;;;;;;;6.10;2.57;;;11.80;99.90;;;-141.84;76.63;23530.75;5087690;28;20265;-62
2024/04/05 05:43:02;;;;;;;7.60;4.30;;;11.80;99.90;;;-141.84;74.65;20598.41;5087967;28;20599;-61
2024/04/05 05:45:29;;;;;;;4.90;2.57;;;11.90;99.90;;;-141.84;73.49;19840.25;5091602;28;20204;-61
2024/04/05 05:47:56;;;;;;;4.73;2.17;;;12.00;99.90;;;-141.84;72.87;19647.19;5090841;28;20204;-61
2024/04/05 05:50:25;;;;;;;4.33;2.20;;;12.00;99.90;;;-141.84;71.60;19370.81;5092857;28;20231;-62
2024/04/05 05:52:52;;;;;;;4.67;2.20;;;12.10;99.90;;;-141.84;73.31;19803.69;5098205;28;20211;-70
2024/04/05 05:55:22;;;;;;;2.63;2.13;;;12.10;99.90;;;-141.84;74.20;20315.88;5089400;28;20220;-70
2024/04/05 05:57:48;;;;;;;6.77;2.50;;;12.10;99.90;;;-141.84;73.98;20163.41;5096596;28;20718;-68
2024/04/05 06:00:18;;;;;;;5.10;2.58;;;12.10;99.90;;;-141.84;73.00;19681.75;5097506;28;20192;-70
2024/04/05 06:02:44;;;;;;;3.03;2.33;;;12.10;99.90;;;-141.84;71.68;19431.78;5095699;28;20238;-69
2024/04/05 06:05:12;;;;;;;6.73;2.83;;;12.30;99.90;;;-141.84;70.67;19326.09;5084910;28;20219;-69
2024/04/05 06:07:39;;;;;;;5.40;2.92;;;12.40;99.90;;;-141.84;69.93;19259.03;5095320;28;20215;-68
2024/04/05 06:10:07;;;;;;;4.13;2.45;;;12.50;99.90;;;-141.84;70.50;19364.72;5095112;28;20731;-70
2024/04/05 06:12:38;;;;;;;4.22;2.90;;;12.70;99.90;;;-141.84;67.57;19165.56;5103780;28;20199;-69
2024/04/05 06:15:07;;;;;;;3.85;2.50;;;12.90;99.90;;;-141.84;67.71;19220.44;5093271;28;20200;-69
2024/04/05 06:17:37;;;;;;;7.70;2.42;;;13.10;99.90;;;-141.84;68.05;19259.03;5095224;28;20731;-69
2024/04/05 06:20:06;;;;;;;4.93;2.33;;;13.20;99.90;;;-141.84;65.74;19171.66;5099405;28;20219;-70
2024/04/05 06:22:37;;;;;;;4.90;2.50;;;13.40;99.90;;;-141.84;65.04;19187.91;5091275;28;20208;-68
2024/04/05 06:25:05;;;;;;;5.57;2.35;;;13.50;99.90;;;-141.84;66.33;19257.00;5097568;28;20672;-69
2024/04/05 06:27:42;;;;;;;3.72;2.50;;;13.40;99.90;;;-141.84;68.33;19297.66;5099378;28;20200;-69
2024/04/05 06:30:12;;;;;;;5.07;2.60;;;13.50;99.90;;;-141.84;68.51;19340.31;5092181;28;20218;-69
2024/04/05 06:32:42;;;;;;;5.60;3.00;;;13.50;99.90;;;-141.84;68.45;19346.44;5080922;28;20223;-69
2024/04/05 06:35:09;;;;;;;4.13;2.53;;;13.60;99.90;;;-141.84;68.30;19340.31;5099206;28;20283;-70
2024/04/05 06:37:36;;;;;;;4.40;2.60;;;13.70;99.90;;;-141.84;69.55;19399.25;5099658;28;20251;-69
2024/04/05 06:40:05;;;;;;;3.95;2.60;;;13.70;99.90;;;-141.84;68.84;19376.91;5096169;28;20227;-69
2024/04/05 06:42:36;;;;;;;6.40;2.63;;;13.70;99.90;;;-141.84;67.78;19354.56;5096118;28;20200;-69
2024/04/05 06:45:03;;;;;;;3.47;2.40;;;13.80;99.90;;;-141.84;68.75;19387.06;5077091;28;20222;-69
2024/04/05 06:47:30;;;;;;;5.30;2.65;;;13.80;99.90;;;-141.84;67.72;19340.31;5098820;28;20262;-71
2024/04/05 06:49:59;;;;;;;4.68;2.65;;;13.90;99.90;;;-141.84;67.35;19338.28;5095761;28;20208;-61
2024/04/05 06:52:25;;;;;;;5.22;3.10;;;13.90;99.90;;;-141.84;67.53;19346.44;5096096;28;20215;-60
2024/04/05 06:54:57;;;;;;;3.97;2.33;;;14.00;99.90;;;-141.84;67.75;19358.63;5098792;28;20218;-60
2024/04/05 06:57:24;;;;;;;5.65;2.50;;;14.00;99.90;;;-141.84;67.12;19360.66;5116182;28;20199;-62
2024/04/05 06:59:55;;;;;;;3.85;2.35;;;14.00;99.90;;;-141.84;68.72;19415.50;5099256;28;20196;-61
2024/04/05 07:02:22;;;;;;;4.50;2.60;;;14.00;99.90;;;-141.84;68.96;19435.84;5095453;28;20266;-61
2024/04/05 07:04:50;;;;;;;6.18;2.88;;;14.00;99.90;;;-141.84;69.76;19498.84;5092905;28;20220;-60
2024/04/05 07:07:22;;;;;;;5.53;3.00;;;14.00;99.90;;;-141.84;71.07;19689.88;5087401;28;20277;-61
2024/04/05 07:09:49;;;;;;;5.72;2.80;;;13.90;99.90;;;-141.84;72.22;19994.72;5098180;28;20226;-61
2024/04/05 07:12:16;;;;;;;4.93;2.78;;;13.90;99.90;;;-141.84;73.98;21145.25;5099704;28;20203;-61
2024/04/05 07:14:43;;;;;;;4.13;2.85;;;13.80;99.90;;;-141.84;72.90;20177.66;5098097;28;20377;-62
2024/04/05 07:17:11;;;;;;;5.68;2.70;;;13.90;99.90;;;-141.84;73.38;20708.19;5095734;28;20222;-62
2024/04/05 07:19:38;;;;;;;6.13;3.28;;;13.90;99.90;;;-141.84;73.99;21334.34;5090504;28;20212;-61
2024/04/05 07:22:07;;;;;;;4.85;2.78;;;13.80;99.90;;;-141.84;75.08;22883.91;5094245;28;20226;-63
2024/04/05 07:24:38;;;;;;;4.32;2.80;;;13.90;99.90;;;-141.84;75.18;23107.66;5093962;28;20584;-61
2024/04/05 07:27:05;;;;;;;5.72;3.17;;;13.90;99.90;;;-141.84;75.26;23785.06;5092638;28;20272;-62
2024/04/05 07:29:33;;;;;;;6.32;3.08;;;13.80;99.90;;;-141.84;74.71;22029.75;5083886;28;20276;-64
2024/04/05 07:31:59;;;;;;;4.95;3.60;;;14.00;99.90;;;-141.84;73.24;20651.25;5090797;28;20242;-60
2024/04/05 07:34:26;;;;;;;4.85;2.60;;;14.10;99.90;;;-141.84;71.22;19730.50;5089460;28;20231;-59
2024/04/05 07:36:53;;;;;;;5.25;2.80;;;14.20;99.90;;;-141.84;71.25;19708.16;5084874;28;20215;-60
2024/04/05 07:39:20;;;;;;;5.00;3.22;;;14.30;99.90;;;-141.84;69.59;19541.50;5090505;28;20204;-61
2024/04/05 07:41:47;;;;;;;6.75;2.90;;;14.40;99.90;;;-141.84;69.91;19561.84;5104168;28;20262;-61
2024/04/05 07:44:15;;;;;;;6.57;2.83;;;14.60;99.90;;;-141.84;68.17;19466.31;5081405;28;20576;-61
2024/04/05 07:46:41;;;;;;;4.57;2.90;;;14.70;99.90;;;-141.84;66.77;19431.78;5091134;28;20227;-63
2024/04/05 07:49:09;;;;;;;5.40;3.13;;;14.90;99.90;;;-141.84;65.37;19378.94;5092039;28;20609;-60
2024/04/05 07:51:36;;;;;;;6.25;3.30;;;15.10;99.90;;;-141.84;66.56;19425.69;5089172;28;20203;-62
2024/04/05 07:54:03;;;;;;;6.03;3.35;;;15.10;99.90;;;-141.84;66.08;19366.75;5107014;28;20579;-63
2024/04/05 07:56:29;;;;;;;4.35;3.15;;;15.20;99.90;;;-141.84;66.36;19423.66;5089873;28;20256;-61
2024/04/05 07:58:58;;;;;;;5.90;3.40;;;15.10;99.90;;;-141.84;66.17;19387.06;5087917;28;20211;-63
2024/04/05 08:01:24;;;;;;;4.85;3.22;;;15.10;99.90;;;-141.84;65.90;19395.19;5086094;28;20591;-63
2024/04/05 08:03:53;;;;;;;4.93;3.28;;;15.20;99.90;;;-141.84;64.71;19425.69;5092421;28;20235;-64
2024/04/05 08:06:19;;;;;;;5.85;2.80;;;15.40;99.90;;;-141.84;62.83;19393.16;5092837;28;20210;-63
2024/04/05 08:08:46;;;;;;;5.13;3.00;;;15.60;99.90;;;-141.84;62.62;19395.19;5089166;28;20217;-62
2024/04/05 08:11:13;;;;;;;5.30;2.95;;;15.80;99.90;;;-141.84;62.96;19380.97;5085840;28;20251;-64
2024/04/05 08:13:40;;;;;;;4.78;2.90;;;15.80;99.90;;;-141.84;61.61;19446.00;5088994;28;20844;-64
2024/04/05 08:16:08;;;;;;;5.78;2.95;;;16.00;99.90;;;-141.84;61.29;19452.09;5089172;28;20224;-63
2024/04/05 08:18:36;;;;;;;4.57;2.88;;;16.20;99.90;;;-141.84;58.84;19482.56;5086929;28;20204;-63
2024/04/05 08:21:04;;;;;;;4.40;2.85;;;16.30;99.90;;;-141.84;60.26;19446.00;5088538;28;20230;-63
2024/04/05 08:23:32;;;;;;;5.05;2.80;;;16.40;99.90;;;-141.84;59.43;19482.56;5092780;28;20207;-63
2024/04/05 08:26:00;;;;;;;6.53;2.58;;;16.40;99.90;;;-141.84;59.77;19472.41;5088896;28;20220;-64
2024/04/05 08:28:27;;;;;;;3.75;2.83;;;16.50;99.90;;;-141.84;59.60;19468.34;5092818;28;20226;-64
2024/04/05 08:30:54;;;;;;;6.15;2.67;;;16.50;99.90;;;-141.84;58.79;19446.00;5092570;28;20230;-63
2024/04/05 08:33:23;;;;;;;4.47;2.80;;;16.50;99.90;;;-141.84;59.50;19454.13;5088733;28;20686;-65
2024/04/05 08:35:53;;;;;;;4.38;2.55;;;16.40;99.90;;;-141.84;59.25;19480.53;5091236;28;20219;-64
2024/04/05 08:38:21;;;;;;;6.35;3.20;;;16.50;99.90;;;-141.84;58.94;19452.09;5089364;28;20228;-64
2024/04/05 08:40:47;;;;;;;4.70;2.80;;;16.60;99.90;;;-141.84;58.73;19496.81;5089961;28;20285;-67
2024/04/05 08:43:18;;;;;;;4.90;3.10;;;16.70;99.90;;;-141.84;57.67;19470.38;5095364;28;20219;-65
2024/04/05 08:45:45;;;;;;;7.30;2.63;;;16.80;99.90;;;-141.84;58.26;19472.41;5093159;28;20695;-65
2024/04/05 08:48:14;;;;;;;4.60;2.72;;;16.80;99.90;;;-141.84;58.30;19492.75;5094445;28;20199;-66
2024/04/05 08:50:42;;;;;;;7.20;2.85;;;16.70;99.90;;;-141.84;58.68;19488.69;5082438;28;20223;-65
2024/04/05 08:53:09;;;;;;;4.38;2.70;;;16.60;99.90;;;-141.84;58.96;19484.59;5082405;28;20249;-63
2024/04/05 08:55:38;;;;;;;4.55;2.42;;;16.60;99.90;;;-141.84;60.18;19482.56;5087977;28;20227;-63
2024/04/05 08:58:07;;;;;;;4.70;2.83;;;16.50;99.90;;;-141.84;61.02;19452.09;5089676;28;20574;-64
2024/04/05 09:00:33;;;;;;;7.35;2.88;;;16.30;99.90;;;-141.84;60.94;19462.25;5088982;28;20200;-63
2024/04/05 09:03:04;;;;;;;5.13;2.70;;;16.30;99.90;;;-141.84;60.56;19472.41;5092233;28;20211;-62
2024/04/05 09:05:30;;;;;;;4.22;2.40;;;16.40;99.90;;;-141.84;60.20;19484.59;5082993;28;20230;-61
2024/04/05 09:08:08;;;;;;;5.70;2.60;;;16.50;99.90;;;-141.84;60.24;19448.03;5089488;28;20265;-63
2024/04/05 09:10:35;;;;;;;6.90;2.65;;;16.50;99.90;;;-141.84;59.53;19472.41;5081994;28;20276;-63
2024/04/05 09:13:05;;;;;;;6.60;2.47;;;16.60;99.90;;;-141.84;60.04;19472.41;5088746;28;20285;-63
2024/04/05 09:15:33;;;;;;;7.00;2.85;;;16.60;99.90;;;-141.84;59.43;19478.50;5090603;28;20195;-62
2024/04/05 09:18:00;;;;;;;5.65;2.90;;;16.70;99.90;;;-141.84;58.89;19488.69;5109148;28;20207;-63
2024/04/05 09:20:29;;;;;;;5.35;2.58;;;16.90;99.90;;;-141.84;57.59;19500.88;5091290;28;20733;-65
2024/04/05 09:23:02;;;;;;;4.13;2.40;;;17.00;99.90;;;-141.84;57.82;19543.53;5091960;28;20620;-65
2024/04/05 09:25:31;;;;;;;3.72;2.25;;;17.10;99.90;;;-141.84;57.50;19543.53;5098318;28;20218;-64
2024/04/05 09:28:07;;;;;;;5.88;2.25;;;17.20;99.90;;;-141.84;54.97;19537.44;5092755;28;20554;-64
2024/04/05 09:30:35;;;;;;;4.57;2.10;;;17.10;99.90;;;-141.84;55.82;19606.53;5083036;28;20294;-64
2024/04/05 09:33:03;;;;;;;4.53;2.22;;;17.10;99.90;;;-141.84;54.83;19549.63;5093078;28;20212;-64
2024/04/05 09:35:30;;;;;;;3.90;2.30;;;17.20;99.90;;;-141.84;53.98;19586.22;5093363;28;20231;-65
2024/04/05 09:37:59;;;;;;;3.25;1.83;;;17.40;99.90;;;-141.84;53.53;19626.88;5092338;28;20702;-66
2024/04/05 09:40:25;;;;;;;4.90;2.00;;;17.40;99.90;;;-141.84;54.10;19549.63;5092241;28;20751;-65
2024/04/05 09:42:55;;;;;;;3.33;1.92;;;17.30;99.90;;;-141.84;53.60;19590.28;5091929;28;20215;-65
2024/04/05 09:45:23;;;;;;;4.28;2.35;;;17.40;99.90;;;-141.84;53.51;19598.41;5096294;28;20216;-64
2024/04/05 09:47:51;;;;;;;4.68;1.98;;;17.50;99.90;;;-141.84;52.42;19665.47;5092578;28;20272;-64
2024/04/05 09:50:20;;;;;;;5.40;2.60;;;17.70;99.90;;;-141.84;53.13;19614.66;5093467;28;20224;-62
2024/04/05 09:52:52;;;;;;;4.65;2.20;;;17.60;99.90;;;-141.84;53.51;19598.41;5084833;28;20212;-62
2024/04/05 09:55:23;;;;;;;6.30;2.17;;;17.50;99.90;;;-141.84;53.96;19574.03;5092631;28;20228;-61
2024/04/05 09:57:50;;;;;;;3.78;2.40;;;17.50;99.90;;;-141.84;54.55;19592.31;5087389;28;20222;-61
2024/04/05 10:00:24;;;;;;;4.85;2.33;;;17.30;99.90;;;-141.84;54.71;19567.94;5093105;28;20211;-62
2024/04/05 10:02:55;;;;;;;4.60;2.15;;;17.40;99.90;;;-141.84;53.34;19606.53;5059222;28;20231;-61
2024/04/05 10:05:26;;;;;;;6.07;2.25;;;17.50;99.90;;;-141.84;53.44;19657.34;5093596;28;20713;-64
2024/04/05 10:07:54;;;;;;;3.47;1.70;;;17.50;99.90;;;-141.84;52.98;19677.66;5095226;28;20219;-61
2024/04/05 10:10:32;;;;;;;5.63;2.20;;;17.70;99.90;;;-141.84;52.94;19693.94;5071536;28;20231;-63